Current Conditions
Clear
Conditions



Pressure
29.82 (inHG) - 1009.92 (mb)
Visibility

10.0 (km) - 6.2 (miles)
Temperature
17  °C
Temperature
10  °C
Dewpoint
64  %
 Humidity
Wind Speed
0.9  m/s
2  mph
3  km/h
2  kts
Wind Direction
N
45°
E
90°
135°
S
180°
225°
W
270°
315°
Calm

Due North
Airport Data
URKA
Anapa Vityazevo Airport
Metar :URKA 152300Z AUTO VRB01MPS 9999 // NCD 17/10 Q1010 RMK QFE753/1005
Sun 16th May 02:00 am
Raw Metar Info
Raw METAR is the most common format in the world for the transmission of observational weather data. It is highly standardized through the International Civil Aviation Organization (ICAO), which allows it to be understood throughout most of the world.
API Info
Data Provided by
https://www.checkwx.com/weather/URKA

Aviation Weather providing METAR, TAF, AIRMET, SIGMET and OUTLOOK Weather Reports
© Info
CSS/SVG/PHP scripts were developed by weather34.com for use in the weather34 template © 2015-2021

Guide Info provided by Metar-Wikipedia